地図

経路データ

SID SEASON NUMBER BASIN SUBBASIN NAME ISO_TIME NATURE LAT LON WMO_WIND WMO_PRES WMO_AGENCY TRACK_TYPE DIST2LAND LANDFALL IFLAG USA_AGENCY USA_ATCF_ID USA_LAT USA_LON USA_RECORD USA_STATUS USA_WIND USA_PRES USA_SSHS USA_R34_NE USA_R34_SE USA_R34_SW USA_R34_NW USA_R50_NE USA_R50_SE USA_R50_SW USA_R50_NW USA_R64_NE USA_R64_SE USA_R64_SW USA_R64_NW USA_POCI USA_ROCI USA_RMW USA_EYE TOKYO_LAT TOKYO_LON TOKYO_GRADE TOKYO_WIND TOKYO_PRES TOKYO_R50_DIR TOKYO_R50_LONG TOKYO_R50_SHORT TOKYO_R30_DIR TOKYO_R30_LONG TOKYO_R30_SHORT TOKYO_LAND CMA_LAT CMA_LON CMA_CAT CMA_WIND CMA_PRES HKO_LAT HKO_LON HKO_CAT HKO_WIND HKO_PRES NEWDELHI_LAT NEWDELHI_LON NEWDELHI_GRADE NEWDELHI_WIND NEWDELHI_PRES NEWDELHI_CI NEWDELHI_DP NEWDELHI_POCI REUNION_LAT REUNION_LON REUNION_TYPE REUNION_WIND REUNION_PRES REUNION_TNUM REUNION_CI REUNION_RMW REUNION_R34_NE REUNION_R34_SE REUNION_R34_SW REUNION_R34_NW REUNION_R50_NE REUNION_R50_SE REUNION_R50_SW REUNION_R50_NW REUNION_R64_NE REUNION_R64_SE REUNION_R64_SW REUNION_R64_NW BOM_LAT BOM_LON BOM_TYPE BOM_WIND BOM_PRES BOM_TNUM BOM_CI BOM_RMW BOM_R34_NE BOM_R34_SE BOM_R34_SW BOM_R34_NW BOM_R50_NE BOM_R50_SE BOM_R50_SW BOM_R50_NW BOM_R64_NE BOM_R64_SE BOM_R64_SW BOM_R64_NW BOM_ROCI BOM_POCI BOM_EYE BOM_POS_METHOD BOM_PRES_METHOD NADI_LAT NADI_LON NADI_CAT NADI_WIND NADI_PRES WELLINGTON_LAT WELLINGTON_LON WELLINGTON_WIND WELLINGTON_PRES DS824_LAT DS824_LON DS824_STAGE DS824_WIND DS824_PRES TD9636_LAT TD9636_LON TD9636_STAGE TD9636_WIND TD9636_PRES TD9635_LAT TD9635_LON TD9635_WIND TD9635_PRES TD9635_ROCI NEUMANN_LAT NEUMANN_LON NEUMANN_CLASS NEUMANN_WIND NEUMANN_PRES MLC_LAT MLC_LON MLC_CLASS MLC_WIND MLC_PRES USA_GUST BOM_GUST BOM_GUST_PER REUNION_GUST REUNION_GUST_PER USA_SEAHGT USA_SEARAD_NE USA_SEARAD_SE USA_SEARAD_SW USA_SEARAD_NW STORM_SPEED STORM_DIR
1941008S15061 1941 4 SI MM NOT_NAMED 1941-01-08 06:00:00 NR -14.8000 60.9000 reunion main 683 683 _____O________ -1 -14.8000 60.9000 99 9.90000 0 0
1941008S15061 1941 4 SI MM NOT_NAMED 1941-01-08 09:00:00 NR -14.8077 60.8793 main 683 683 _____P________ -1 -14.8077 60.8793 99 0 244
1941008S15061 1941 4 SI MM NOT_NAMED 1941-01-08 12:00:00 NR -14.8171 60.8547 main 683 678 _____P________ -1 -14.8171 60.8547 99 1 247
1941008S15061 1941 4 SI MM NOT_NAMED 1941-01-08 15:00:00 NR -14.8298 60.8221 main 678 678 _____P________ -1 -14.8298 60.8221 99 5 88
1941008S15061 1941 4 SI MM NOT_NAMED 1941-01-08 18:00:00 NR -14.7979 61.3620 main 711 711 _____P____O___ -1 -14.8474 60.7775 99 -14.6000 63.7000 7 7 88
1941008S15061 1941 4 SI MM NOT_NAMED 1941-01-08 21:00:00 NR -14.8077 61.5896 main 723 723 _____P____P___ -1 -14.8716 60.7170 99 -14.6798 63.3346 7 3 99
1941008S15061 1941 4 SI MM NOT_NAMED 1941-01-09 00:00:00 TS -14.8486 61.6890 main 729 713 _____P___OP___ -1 -14.9040 60.6366 99 -14.9000 62.1000 TC 35 -14.7576 62.9553 7 1 198
1941008S15061 1941 4 SI MM NOT_NAMED 1941-01-09 03:00:00 TS -14.8997 61.5407 main 707 680 _____P___PP___ -1 -14.9463 60.5323 99 -14.9428 61.5425 TC 35 -14.8315 62.5483 7 5 257
1941008S15061 1941 4 SI MM NOT_NAMED 1941-01-09 06:00:00 TS -14.9636 61.1818 reunion main 680 658 _____O___OO___ -1 -15.0000 60.4000 99 9.90000 -15.0000 61.0000 TC 35 -14.9000 62.1000 2 8 259
1941008S15061 1941 4 SI MM NOT_NAMED 1941-01-09 09:00:00 TS -15.0380 60.7748 main 658 628 _____P___PP___ -1 -15.0663 60.2368 99 -15.0849 60.4850 TC 35 -14.9630 61.6026 2 8 258
1941008S15061 1941 4 SI MM NOT_NAMED 1941-01-09 12:00:00 TS -15.1241 60.3721 main 628 599 _____P___OP___ -1 -15.1445 60.0441 99 -15.2000 60.0000 TC 35 -15.0277 61.0721 2 8 256
1941008S15061 1941 4 SI MM NOT_NAMED 1941-01-09 15:00:00 TS -15.2265 59.9682 main 599 573 _____P___PP___ -1 -15.2335 59.8242 99 -15.3423 59.5500 TC 35 -15.1035 60.5306 2 8 254
1941008S15061 1941 4 SI MM NOT_NAMED 1941-01-09 18:00:00 TS -15.3440 59.5598 main 573 538 _____P___OO___ -1 -15.3321 59.5794 99 -15.5000 59.1000 TC 35 -15.2000 60.0000 2 8 253
1941008S15061 1941 4 SI MM NOT_NAMED 1941-01-09 21:00:00 TS -15.4790 59.1307 main 535 514 _____P___PP___ -1 -15.4392 59.3123 99 -15.6576 58.5850 TC 35 -15.3404 59.4947 2 9 252
1941008S15061 1941 4 SI MM NOT_NAMED 1941-01-10 00:00:00 TS -15.6178 58.7102 main 514 497 _____P___OP___ -1 -15.5536 59.0250 99 -15.8000 58.1000 TC 35 -15.4997 59.0054 2 8 251
1941008S15061 1941 4 SI MM NOT_NAMED 1941-01-10 03:00:00 TS -15.7494 58.3312 main 496 471 _____P___PP___ -1 -15.6743 58.7202 99 -15.9148 57.7349 TC 35 -15.6592 58.5384 2 8 251
1941008S15061 1941 4 SI MM NOT_NAMED 1941-01-10 06:00:00 TS -15.8667 57.9667 reunion main 471 458 _____O___OO___ -1 -15.8000 58.4000 99 9.90000 -16.0000 57.4000 TC 35 -15.8000 58.1000 2 7 254
1941008S15061 1941 4 SI MM NOT_NAMED 1941-01-10 09:00:00 TS -15.9605 57.5874 main 458 458 _____P___PP___ -1 -15.9280 58.0549 99 -16.0575 57.0074 TC 35 -15.8960 57.6999 2 8 256
1941008S15061 1941 4 SI MM NOT_NAMED 1941-01-10 12:00:00 TS -16.0449 57.2049 main 459 448 _____P___OP___ -1 -16.0629 57.6878 99 -16.1000 56.6000 TC 35 -15.9718 57.3270 2 8 257
1941008S15061 1941 4 SI MM NOT_NAMED 1941-01-10 15:00:00 TS -16.1272 56.8242 main 453 444 _____P___PP___ -1 -16.2024 57.3070 99 -16.1424 56.1999 TC 35 -16.0367 56.9656 2 8 257
1941008S15061 1941 4 SI MM NOT_NAMED 1941-01-10 18:00:00 TS -16.2148 56.4404 main 451 443 _____P___OO___ -1 -16.3445 56.9212 99 -16.2000 55.8000 TC 35 -16.1000 56.6000 2 8 256
1941008S15061 1941 4 SI MM NOT_NAMED 1941-01-10 21:00:00 TS -16.3170 56.0227 main 453 447 _____P___PP___ -1 -16.4872 56.5390 99 -16.2926 55.3626 TC 35 -16.1712 56.1666 2 8 255
1941008S15061 1941 4 SI MM NOT_NAMED 1941-01-11 00:00:00 TS -16.4238 55.6338 main 460 454 _____P___OP___ -1 -16.6286 56.1689 99 -16.4000 55.0000 TC 35 -16.2429 55.7326 2 7 253
1941008S15061 1941 4 SI MM NOT_NAMED 1941-01-11 03:00:00 TS -16.5283 55.3215 main 464 455 _____P___PP___ -1 -16.7668 55.8197 99 -16.4999 54.8124 TC 35 -16.3181 55.3322 2 6 249
1941008S15061 1941 4 SI MM NOT_NAMED 1941-01-11 06:00:00 TS -16.6333 55.0667 reunion main 466 462 _____O___OO___ -1 -16.9000 55.5000 99 9.90000 -16.6000 54.7000 TC 35 -16.4000 55.0000 2 5 245
1941008S15061 1941 4 SI MM NOT_NAMED 1941-01-11 09:00:00 TS -16.7391 54.8378 main 475 466 _____P___PP___ -1 -17.0289 55.2050 99 -16.7000 54.5425 TC 35 -16.4883 54.7658 2 5 242
1941008S15061 1941 4 SI MM NOT_NAMED 1941-01-11 12:00:00 TS -16.8464 54.6452 main 465 459 _____P___OP___ -1 -17.1548 54.9332 99 -16.8000 54.4000 TC 35 -16.5845 54.6024 2 4 238
1941008S15061 1941 4 SI MM NOT_NAMED 1941-01-11 15:00:00 TS -16.9526 54.4865 main 455 446 _____P___PP___ -1 -17.2767 54.6868 99 -16.8925 54.2850 TC 35 -16.6885 54.4877 2 4 232
1941008S15061 1941 4 SI MM NOT_NAMED 1941-01-11 18:00:00 TS -17.0647 54.3558 main 446 437 _____P___OO___ -1 -17.3940 54.4674 99 -17.0000 54.2000 TC 35 -16.8000 54.4000 2 3 226
1941008S15061 1941 4 SI MM NOT_NAMED 1941-01-11 21:00:00 TS -17.1873 54.2318 main 440 429 _____P___PP___ -1 -17.5058 54.2771 99 -17.1425 54.1350 TC 35 -16.9137 54.2831 2 3 220
1941008S15061 1941 4 SI MM NOT_NAMED 1941-01-12 00:00:00 TS -17.3154 54.1360 main 432 421 _____P___OP___ -1 -17.6113 54.1179 99 -17.3000 54.1000 TC 35 -17.0350 54.1901 2 3 212
1941008S15061 1941 4 SI MM NOT_NAMED 1941-01-12 03:00:00 TS -17.4411 54.0653 main 421 404 _____P___PP___ -1 -17.7097 53.9915 99 -17.4500 54.0775 TC 35 -17.1637 54.1269 2 3 201
1941008S15061 1941 4 SI MM NOT_NAMED 1941-01-12 06:00:00 TS -17.5667 54.0333 reunion main 404 393 _____O___OO___ -1 -17.8000 53.9000 99 9.90000 -17.6000 54.1000 TC 35 -17.3000 54.1000 2 3 187
1941008S15061 1941 4 SI MM NOT_NAMED 1941-01-12 09:00:00 TS -17.6956 54.0242 main 393 383 _____P___PP___ -1 -17.8783 53.7858 99 -17.7575 54.1850 TC 35 -17.4509 54.1018 2 3 174
1941008S15061 1941 4 SI MM NOT_NAMED 1941-01-12 12:00:00 TS -17.8185 54.0476 main 383 368 _____P___OP___ -1 -17.9480 53.7029 99 -17.9000 54.3000 TC 35 -17.6074 54.1399 2 2 166
1941008S15061 1941 4 SI MM NOT_NAMED 1941-01-12 15:00:00 TS -17.9263 54.0854 main 368 358 _____P___PP___ -1 -18.0111 53.6555 99 -18.0075 54.3925 TC 35 -17.7603 54.2081 2 2 154
1941008S15061 1941 4 SI MM NOT_NAMED 1941-01-12 18:00:00 TS -18.0233 54.1493 main 358 344 _____P___OO___ -1 -18.0698 53.6480 99 -18.1000 54.5000 TC 35 -17.9000 54.3000 2 2 145
1941008S15061 1941 4 SI MM NOT_NAMED 1941-01-12 21:00:00 TS -18.1186 54.2265 main 344 330 _____P___PP___ -1 -18.1260 53.6844 99 -18.2074 54.6200 TC 35 -18.0223 54.3750 2 3 133
1941008S15061 1941 4 SI MM NOT_NAMED 1941-01-13 00:00:00 TS -18.2038 54.3480 main 330 313 _____P___OP___ -1 -18.1818 53.7690 99 -18.3000 54.8000 TC 35 -18.1297 54.4751 2 3 118
1941008S15061 1941 4 SI MM NOT_NAMED 1941-01-13 03:00:00 TS -18.2730 54.5321 main 313 306 _____P___PP___ -1 -18.2392 53.9061 99 -18.3575 55.0775 TC 35 -18.2223 54.6126 2 4 108
1941008S15061 1941 4 SI MM NOT_NAMED 1941-01-13 06:00:00 TS -18.3333 54.7667 reunion main 306 292 _____O___OO___ -1 -18.3000 54.1000 99 9.90000 -18.4000 55.4000 TC 35 -18.3000 54.8000 2 5 103
1941008S15061 1941 4 SI MM NOT_NAMED 1941-01-13 09:00:00 TS -18.3859 55.0577 main 291 290 _____P___PP___ -1 -18.3629 54.4076 99 -18.4425 55.7075 TC 35 -18.3524 55.0580 2 6 100
1941008S15061 1941 4 SI MM NOT_NAMED 1941-01-13 12:00:00 TS -18.4398 55.3820 main 290 260 _____P___OP___ -1 -18.4266 54.7833 99 -18.5000 56.0000 TC 35 -18.3928 55.3628 2 6 101
1941008S15061 1941 4 SI MM NOT_NAMED 1941-01-13 15:00:00 TS -18.5047 55.7161 main 260 230 _____P___PP___ -1 -18.4923 55.2045 99 -18.5849 56.2575 TC 35 -18.4368 55.6862 2 6 103
1941008S15061 1941 4 SI MM NOT_NAMED 1941-01-13 18:00:00 TS -18.5768 56.0086 main 230 200 _____P___OO___ -1 -18.5611 55.6486 99 -18.7000 56.5000 TC 35 -18.5000 56.0000 2 6 106
1941008S15061 1941 4 SI MM NOT_NAMED 1941-01-13 21:00:00 TS -18.6600 56.2996 main 200 182 _____P___PP___ -1 -18.6345 56.0929 99 -18.8426 56.7474 TC 35 -18.5943 56.2825 2 6 108
1941008S15061 1941 4 SI MM NOT_NAMED 1941-01-14 00:00:00 TS -18.7502 56.5837 main 173 162 _____P___OP___ -1 -18.7142 56.5147 99 -19.0000 57.0000 TC 35 -18.7149 56.5370 2 5 107
1941008S15061 1941 4 SI MM NOT_NAMED 1941-01-14 03:00:00 NR -18.8191 56.8519 main 158 140 _____P____P___ -1 -18.8020 56.8913 99 TC -18.8531 56.7730 2 6 107
1941008S15061 1941 4 SI MM NOT_NAMED 1941-01-14 06:00:00 NR -18.9200 57.1600 reunion main 137 123 _____O____O___ -1 -18.9000 57.2000 99 9.90000 -19.0000 57.0000 2 6 109
1941008S15061 1941 4 SI MM NOT_NAMED 1941-01-14 09:00:00 NR -19.0097 57.4238 main 123 111 _____P________ -1 -19.0097 57.4238 99 2 4 119
1941008S15061 1941 4 SI MM NOT_NAMED 1941-01-14 12:00:00 NR -19.1303 57.5682 main 111 89 _____P________ -1 -19.1303 57.5682 99 2 3 140
1941008S15061 1941 4 SI MM NOT_NAMED 1941-01-14 15:00:00 NR -19.2605 57.6446 main 89 78 _____P________ -1 -19.2605 57.6446 99 2 3 162
1941008S15061 1941 4 SI MM NOT_NAMED 1941-01-14 18:00:00 NR -19.3987 57.6642 main 78 67 _____P________ -1 -19.3987 57.6642 99 3 0
1941008S15061 1941 4 SI MM NOT_NAMED 1941-01-14 21:00:00 NR -19.5434 57.6382 main 67 44 _____P________ -1 -19.5434 57.6382 99 3 195
1941008S15061 1941 4 SI MM NOT_NAMED 1941-01-15 00:00:00 NR -19.6930 57.5780 main 44 33 _____P________ -1 -19.6930 57.5780 99 3 204
1941008S15061 1941 4 SI MM NOT_NAMED 1941-01-15 03:00:00 NR -19.8457 57.4948 main 33 15 _____P________ -1 -19.8457 57.4948 99 4 209
1941008S15061 1941 4 SI MM NOT_NAMED 1941-01-15 06:00:00 NR -20.0000 57.4000 reunion main 15 _____O________ -1 -20.0000 57.4000 99 9.90000 4 209

IBTrACS Databaseについて

本データベースは、米国NOAAが公開する1842年以降の世界の熱帯低気圧のベストトラックデータアーカイブInternational Best Track Archive for Climate Stewardship (IBTrACS)を、ウェブで閲覧しやすい形式に変換したものです。

最終更新日:2021-10-08